createdAt,value
2022-09-28T00:01:58.915Z,55.67
2022-09-28T00:04:25.590Z,56.10
2022-09-28T00:06:52.167Z,54.95
2022-09-28T00:09:18.782Z,60.03
2022-09-28T00:11:46.102Z,59.88
2022-09-28T00:14:13.429Z,62.17
2022-09-28T00:16:43.495Z,61.33
2022-09-28T00:19:11.849Z,66.03
2022-09-28T00:21:40.580Z,65.10
2022-09-28T00:24:22.942Z,69.78
2022-09-28T00:26:56.991Z,73.95
2022-09-28T00:29:32.762Z,81.63
2022-09-28T00:32:09.657Z,87.07
2022-09-28T00:34:43.164Z,92.95
2022-09-28T00:37:10.162Z,92.65
2022-09-28T00:39:38.416Z,99.47
2022-09-28T00:42:12.444Z,107.05
2022-09-28T00:44:46.587Z,111.70
2022-09-28T00:47:41.680Z,118.18
2022-09-28T00:50:11.243Z,117.55
2022-09-28T00:52:48.559Z,122.55
2022-09-28T00:55:18.976Z,126.07
2022-09-28T00:57:51.935Z,130.50
2022-09-28T01:00:19.147Z,133.75
2022-09-28T01:02:46.905Z,137.88
2022-09-28T01:05:18.386Z,133.45
2022-09-28T01:07:46.582Z,129.98
2022-09-28T01:10:14.223Z,135.85
2022-09-28T01:12:40.714Z,136.93
2022-09-28T01:15:07.610Z,137.85
2022-09-28T01:17:44.843Z,139.82
2022-09-28T01:20:33.903Z,144.60
2022-09-28T01:23:15.536Z,135.38
2022-09-28T01:25:48.074Z,141.95
2022-09-28T01:28:17.297Z,147.73
2022-09-28T01:31:05.560Z,151.93
2022-09-28T01:33:56.973Z,151.98
2022-09-28T01:36:55.283Z,147.93
2022-09-28T01:39:29.507Z,149.93
2022-09-28T01:42:00.709Z,155.23
2022-09-28T01:44:31.035Z,152.45
2022-09-28T01:47:04.274Z,156.10
2022-09-28T01:49:46.013Z,151.43
2022-09-28T01:52:25.159Z,145.63
2022-09-28T01:55:01.497Z,140.50
2022-09-28T01:58:10.940Z,135.95
2022-09-28T02:00:42.548Z,133.10
2022-09-28T02:03:16.346Z,137.98
2022-09-28T02:05:59.545Z,138.10
2022-09-28T02:08:34.820Z,135.90
2022-09-28T02:11:11.546Z,140.80
2022-09-28T02:13:43.090Z,147.13
2022-09-28T02:16:21.746Z,155.32
2022-09-28T02:18:48.283Z,149.55
2022-09-28T02:21:29.708Z,145.98
2022-09-28T02:24:01.069Z,138.15
2022-09-28T02:26:34.901Z,140.38
2022-09-28T02:29:01.516Z,133.15
2022-09-28T02:31:28.371Z,137.05
2022-09-28T02:33:57.682Z,115.07
2022-09-28T02:36:26.362Z,119.20
2022-09-28T02:38:53.672Z,117.63
2022-09-28T02:41:32.868Z,117.95
2022-09-28T02:44:05.997Z,103.93
2022-09-28T02:46:52.904Z,108.05
2022-09-28T02:49:47.014Z,92.47
2022-09-28T02:52:16.377Z,93.00
2022-09-28T02:55:04.586Z,92.45
2022-09-28T02:57:46.306Z,97.75
2022-09-28T03:00:19.935Z,99.45
2022-09-28T03:02:46.382Z,103.32
2022-09-28T03:05:21.060Z,97.20
2022-09-28T03:10:29.803Z,90.28
2022-09-28T03:12:57.616Z,97.30
2022-09-28T03:15:27.532Z,92.03
2022-09-28T03:17:54.607Z,86.97
2022-09-28T03:20:21.170Z,77.88
2022-09-28T03:23:06.048Z,80.68
2022-09-28T03:25:34.263Z,82.13
2022-09-28T03:28:00.966Z,82.28
2022-09-28T03:30:27.790Z,82.15
2022-09-28T03:33:03.563Z,84.35
2022-09-28T03:35:30.025Z,84.07
2022-09-28T03:37:57.187Z,82.40
2022-09-28T03:40:24.117Z,84.40
2022-09-28T03:42:50.659Z,81.75
2022-09-28T03:45:17.191Z,82.88
2022-09-28T03:47:47.071Z,84.18
2022-09-28T03:50:13.693Z,84.68
2022-09-28T03:52:40.316Z,85.65
2022-09-28T03:55:07.305Z,85.15
2022-09-28T03:57:33.768Z,83.22
2022-09-28T04:00:00.450Z,84.40
2022-09-28T04:02:27.041Z,83.00
2022-09-28T04:04:53.554Z,82.25
2022-09-28T04:07:20.051Z,81.25
2022-09-28T04:09:46.549Z,82.63
2022-09-28T04:12:13.010Z,79.50
2022-09-28T04:14:39.493Z,80.15
2022-09-28T04:17:07.259Z,81.18
2022-09-28T04:19:33.798Z,80.68
2022-09-28T04:22:01.943Z,81.00
2022-09-28T04:24:28.449Z,80.28
2022-09-28T04:27:14.903Z,79.50
2022-09-28T04:29:41.715Z,79.40
2022-09-28T04:32:08.264Z,80.55
2022-09-28T04:34:37.226Z,82.88
2022-09-28T04:37:05.288Z,84.82
2022-09-28T04:39:31.848Z,82.15
2022-09-28T04:41:58.310Z,81.93
2022-09-28T04:44:26.196Z,84.18
2022-09-28T04:46:55.191Z,84.75
2022-09-28T04:49:21.682Z,83.75
2022-09-28T04:51:48.150Z,81.50
2022-09-28T04:54:14.634Z,80.90
2022-09-28T04:56:41.785Z,83.07
2022-09-28T04:59:08.274Z,84.13
2022-09-28T05:01:34.809Z,85.75
2022-09-28T05:04:01.550Z,84.75
2022-09-28T05:06:30.649Z,85.60
2022-09-28T05:08:57.567Z,87.68
2022-09-28T05:11:24.206Z,86.40
2022-09-28T05:13:50.769Z,85.25
2022-09-28T05:16:17.589Z,84.20
2022-09-28T05:18:44.083Z,84.40
2022-09-28T05:21:12.771Z,86.57
2022-09-28T05:23:40.282Z,85.50
2022-09-28T05:26:07.390Z,80.22
2022-09-28T05:28:34.199Z,83.60
2022-09-28T05:31:02.339Z,82.57
2022-09-28T05:33:29.753Z,85.40
2022-09-28T05:36:00.925Z,83.90
2022-09-28T05:38:28.688Z,87.28
2022-09-28T05:40:55.845Z,91.38
2022-09-28T05:43:22.724Z,95.20
2022-09-28T05:45:54.276Z,102.53
2022-09-28T05:48:20.970Z,108.50
2022-09-28T05:50:52.359Z,114.72
2022-09-28T05:53:19.389Z,121.00
2022-09-28T05:55:45.992Z,130.32
2022-09-28T05:58:12.555Z,136.20
2022-09-28T06:00:39.423Z,139.60
2022-09-28T06:03:10.503Z,144.35
2022-09-28T06:05:39.351Z,147.93
2022-09-28T06:08:08.383Z,153.55
2022-09-28T06:10:35.310Z,154.95
2022-09-28T06:13:01.973Z,160.38
2022-09-28T06:15:31.070Z,165.32
2022-09-28T06:17:59.569Z,161.23
2022-09-28T06:20:27.639Z,129.07
2022-09-28T06:22:54.403Z,140.10
2022-09-28T06:25:22.657Z,155.23
2022-09-28T06:27:59.057Z,146.75
2022-09-28T06:30:27.269Z,117.22
2022-09-28T06:32:56.120Z,97.40
2022-09-28T06:35:25.480Z,87.55
2022-09-28T06:37:53.299Z,112.03
2022-09-28T06:40:21.464Z,121.55
2022-09-28T06:43:00.962Z,109.90
2022-09-28T06:45:29.654Z,115.97
2022-09-28T06:48:00.770Z,118.07
2022-09-28T06:50:40.540Z,113.10
2022-09-28T06:53:09.528Z,100.88
2022-09-28T06:55:39.066Z,96.80
2022-09-28T06:58:09.797Z,95.20
2022-09-28T07:00:38.125Z,95.65
2022-09-28T07:03:07.348Z,93.10
2022-09-28T07:05:36.894Z,94.35
2022-09-28T07:08:04.420Z,94.32
2022-09-28T07:10:32.460Z,92.47
2022-09-28T07:13:02.703Z,85.50
2022-09-28T07:15:29.806Z,85.05
2022-09-28T07:18:02.557Z,74.72
2022-09-28T07:20:30.695Z,77.00
2022-09-28T07:23:15.284Z,73.93
2022-09-28T07:25:49.608Z,67.85
2022-09-28T07:28:17.347Z,63.25
2022-09-28T07:30:47.429Z,59.03
2022-09-28T07:33:15.922Z,57.38
2022-09-28T07:35:50.757Z,55.50
2022-09-28T07:38:17.234Z,51.78
2022-09-28T07:41:02.342Z,46.10
2022-09-28T07:43:28.861Z,49.03
2022-09-28T07:45:55.788Z,47.67
2022-09-28T07:48:23.395Z,47.80
2022-09-28T07:50:57.370Z,39.40
2022-09-28T07:53:25.478Z,38.65
2022-09-28T07:55:57.221Z,34.53
2022-09-28T07:58:23.717Z,40.00
2022-09-28T08:00:51.125Z,87.82
2022-09-28T08:03:18.779Z,93.28
2022-09-28T08:05:46.954Z,98.05
2022-09-28T08:08:14.053Z,97.90
2022-09-28T08:10:46.791Z,144.65
2022-09-28T08:13:15.258Z,72.68
2022-09-28T08:15:42.613Z,110.72
2022-09-28T08:18:09.856Z,110.28
2022-09-28T08:20:56.748Z,162.73
2022-09-28T08:23:23.705Z,159.43
2022-09-28T08:25:54.119Z,143.90
2022-09-28T08:28:23.247Z,121.70
2022-09-28T08:30:50.262Z,151.65
2022-09-28T08:33:21.287Z,252.05
2022-09-28T08:35:48.323Z,213.85
2022-09-28T08:38:15.343Z,236.40
2022-09-28T08:40:58.862Z,259.25
2022-09-28T08:43:37.787Z,211.85
2022-09-28T08:46:04.433Z,224.32
2022-09-28T08:48:56.289Z,204.50
2022-09-28T08:51:33.842Z,185.43
2022-09-28T08:54:21.027Z,194.57
2022-09-28T08:56:52.455Z,179.68
2022-09-28T08:59:23.564Z,158.23
2022-09-28T09:02:03.617Z,171.20
2022-09-28T09:04:32.880Z,137.45
2022-09-28T09:07:19.730Z,133.52
2022-09-28T09:10:01.144Z,80.45
2022-09-28T09:12:36.937Z,63.25
2022-09-28T09:15:17.478Z,86.35
2022-09-28T09:18:08.967Z,72.45
2022-09-28T09:20:50.461Z,76.80
2022-09-28T09:23:28.400Z,62.00
2022-09-28T09:26:03.634Z,62.03
2022-09-28T09:29:01.224Z,48.10
2022-09-28T09:31:39.906Z,49.60
2022-09-28T09:34:09.369Z,49.30
2022-09-28T09:36:38.769Z,43.65
2022-09-28T09:39:17.485Z,46.67
2022-09-28T09:41:46.870Z,50.95
2022-09-28T09:44:19.384Z,52.72
2022-09-28T09:46:49.644Z,52.55
2022-09-28T09:49:24.796Z,58.78
2022-09-28T09:52:18.701Z,58.13
2022-09-28T09:54:58.575Z,59.83
2022-09-28T09:57:54.494Z,63.60
2022-09-28T10:00:21.918Z,65.55
2022-09-28T10:02:49.752Z,56.20
2022-09-28T10:05:29.217Z,44.08
2022-09-28T10:07:58.428Z,37.53
2022-09-28T10:10:29.581Z,34.28
2022-09-28T10:12:56.816Z,34.53
2022-09-28T10:15:28.434Z,32.20
2022-09-28T10:17:58.703Z,34.35
2022-09-28T10:20:25.666Z,35.55
2022-09-28T10:22:53.660Z,31.85
2022-09-28T10:25:20.427Z,39.40
2022-09-28T10:27:49.592Z,41.05
2022-09-28T10:30:20.266Z,44.17
2022-09-28T10:32:48.948Z,42.20
2022-09-28T10:35:18.604Z,48.30
2022-09-28T10:37:56.818Z,77.47
2022-09-28T10:40:46.446Z,85.22
2022-09-28T10:43:26.287Z,79.28
2022-09-28T10:46:13.575Z,65.47
2022-09-28T10:48:51.781Z,59.40
2022-09-28T10:51:18.319Z,90.47
2022-09-28T10:54:02.628Z,79.18
2022-09-28T10:56:35.858Z,93.38
2022-09-28T10:59:02.612Z,90.55
2022-09-28T11:01:34.421Z,87.60
2022-09-28T11:04:04.137Z,86.43
2022-09-28T11:06:36.787Z,110.45
2022-09-28T11:09:07.462Z,109.88
2022-09-28T11:11:42.095Z,108.30
2022-09-28T11:14:23.116Z,106.85
2022-09-28T11:17:26.401Z,112.65
2022-09-28T11:19:54.249Z,122.13
2022-09-28T11:22:51.734Z,122.03
2022-09-28T11:25:32.908Z,117.25
2022-09-28T11:28:04.493Z,94.07
2022-09-28T11:30:34.154Z,86.97
2022-09-28T11:33:05.795Z,60.10
2022-09-28T11:35:44.505Z,50.20
2022-09-28T11:38:36.079Z,27.40
2022-09-28T11:41:08.825Z,27.13
2022-09-28T11:43:47.530Z,24.77
2022-09-28T11:46:37.181Z,23.70
2022-09-28T11:49:16.108Z,20.23
2022-09-28T11:51:46.063Z,16.50
2022-09-28T11:54:28.960Z,17.00
2022-09-28T11:56:59.867Z,18.02
2022-09-28T11:59:32.758Z,18.65
2022-09-28T12:02:29.963Z,17.88
2022-09-28T12:05:14.903Z,16.73
2022-09-28T12:07:50.543Z,17.35
2022-09-28T12:10:20.160Z,18.88
2022-09-28T12:13:00.122Z,19.67
2022-09-28T12:16:12.956Z,20.55
2022-09-28T12:18:49.157Z,22.25
2022-09-28T12:21:24.712Z,22.40
2022-09-28T12:24:06.566Z,17.45
2022-09-28T12:26:38.814Z,21.60
2022-09-28T12:29:31.326Z,21.73
2022-09-28T12:32:26.220Z,22.33
2022-09-28T12:34:53.943Z,17.20
2022-09-28T12:37:43.597Z,16.60
2022-09-28T12:40:25.825Z,16.63
2022-09-28T12:43:01.327Z,17.67
2022-09-28T12:45:27.834Z,15.73
2022-09-28T12:48:26.170Z,16.65
2022-09-28T12:51:18.483Z,15.80
2022-09-28T12:54:12.791Z,14.90
2022-09-28T12:59:35.266Z,14.90
2022-09-28T13:02:08.114Z,16.33
2022-09-28T13:04:49.939Z,14.93
2022-09-28T13:07:21.096Z,21.05
2022-09-28T13:10:07.499Z,20.55
2022-09-28T13:12:45.568Z,18.65
2022-09-28T13:15:45.487Z,27.25
2022-09-28T13:18:23.419Z,26.38
2022-09-28T13:21:13.004Z,28.98
2022-09-28T13:23:43.198Z,34.28
2022-09-28T13:26:19.659Z,33.90
2022-09-28T13:28:48.154Z,35.00
2022-09-28T13:31:20.472Z,34.13
2022-09-28T13:33:47.975Z,33.45
2022-09-28T13:36:26.609Z,32.97
2022-09-28T13:38:54.749Z,41.17
2022-09-28T13:41:47.413Z,33.58
2022-09-28T13:44:13.938Z,34.72
2022-09-28T13:47:21.345Z,29.10
2022-09-28T13:50:15.780Z,18.92
2022-09-28T13:55:55.656Z,14.55
2022-09-28T13:58:30.094Z,14.93
2022-09-28T14:00:59.938Z,16.92
2022-09-28T14:03:28.345Z,16.45
2022-09-28T14:06:27.120Z,18.63
2022-09-28T14:09:15.982Z,22.20
2022-09-28T14:11:57.884Z,24.67
2022-09-28T14:14:31.137Z,21.92
2022-09-28T14:17:30.294Z,20.17
2022-09-28T14:20:03.719Z,16.08
2022-09-28T14:23:07.706Z,19.80
2022-09-28T14:25:41.057Z,17.17
2022-09-28T14:28:34.000Z,20.02
2022-09-28T14:31:08.589Z,22.30
2022-09-28T14:33:35.779Z,28.50
2022-09-28T14:36:07.607Z,29.50
2022-09-28T14:39:08.691Z,32.38
2022-09-28T14:41:38.459Z,33.35
2022-09-28T14:44:11.855Z,32.65
2022-09-28T14:46:46.646Z,31.35
2022-09-28T14:49:23.341Z,32.70
2022-09-28T14:51:55.937Z,32.45
2022-09-28T14:54:24.841Z,34.20
2022-09-28T14:56:54.424Z,32.42
2022-09-28T14:59:26.018Z,32.13
2022-09-28T15:01:57.958Z,30.35
2022-09-28T15:04:28.706Z,27.77
2022-09-28T15:06:55.551Z,22.67
2022-09-28T15:09:38.457Z,22.83
2022-09-28T15:12:12.190Z,19.67
2022-09-28T15:14:47.884Z,18.15
2022-09-28T15:17:21.501Z,17.10
2022-09-28T15:19:57.246Z,16.20
2022-09-28T15:22:24.300Z,15.45
2022-09-28T15:25:02.524Z,16.05
2022-09-28T15:27:38.889Z,15.77
2022-09-28T15:30:25.462Z,16.42
2022-09-28T15:32:56.584Z,16.92
2022-09-28T15:35:26.342Z,18.75
2022-09-28T15:37:54.926Z,18.85
2022-09-28T15:40:35.011Z,19.13
2022-09-28T15:43:03.775Z,23.67
2022-09-28T15:45:40.626Z,22.88
2022-09-28T15:48:18.440Z,23.55
2022-09-28T15:51:10.206Z,22.55
2022-09-28T15:53:43.013Z,24.48
2022-09-28T15:56:11.691Z,25.65
2022-09-28T15:58:39.487Z,27.02
2022-09-28T16:01:36.026Z,28.90
2022-09-28T16:04:31.919Z,35.90
2022-09-28T16:07:05.461Z,40.75
2022-09-28T16:09:34.575Z,44.88
2022-09-28T16:12:11.504Z,45.97
2022-09-28T16:14:38.047Z,55.03
2022-09-28T16:17:04.575Z,57.10
2022-09-28T16:19:37.474Z,66.93
2022-09-28T16:22:07.425Z,64.25
2022-09-28T16:24:37.339Z,65.05
2022-09-28T16:27:28.732Z,74.40
2022-09-28T16:30:21.671Z,72.80
2022-09-28T16:33:43.758Z,74.68
2022-09-28T16:36:17.241Z,74.80
2022-09-28T16:38:47.528Z,77.05
2022-09-28T16:41:27.058Z,74.68
2022-09-28T16:43:59.241Z,73.45
2022-09-28T16:46:32.554Z,72.05
2022-09-28T16:49:00.851Z,64.13
2022-09-28T16:51:27.850Z,63.78
2022-09-28T16:54:12.975Z,62.53
2022-09-28T16:56:39.466Z,59.42
2022-09-28T16:59:06.017Z,61.05
2022-09-28T17:01:32.978Z,58.42
2022-09-28T17:03:59.594Z,53.22
2022-09-28T17:06:27.275Z,54.15
2022-09-28T17:08:58.737Z,49.42
2022-09-28T17:11:25.450Z,46.45
2022-09-28T17:13:53.585Z,46.30
2022-09-28T17:16:32.510Z,48.22
2022-09-28T17:19:21.417Z,49.80
2022-09-28T17:21:48.158Z,61.80
2022-09-28T17:24:14.664Z,53.92
2022-09-28T17:26:43.806Z,50.40
2022-09-28T17:29:14.616Z,59.88
2022-09-28T17:31:45.614Z,53.95
2022-09-28T17:34:15.197Z,54.70
2022-09-28T17:36:42.652Z,60.92
2022-09-28T17:39:16.443Z,76.18
2022-09-28T17:41:43.348Z,76.15
2022-09-28T17:44:10.348Z,93.88
2022-09-28T17:46:40.632Z,113.20
2022-09-28T17:49:11.596Z,138.48
2022-09-28T17:51:38.399Z,180.52
2022-09-28T17:54:06.885Z,172.80
2022-09-28T17:56:34.374Z,143.52
2022-09-28T17:59:04.862Z,156.55
2022-09-28T18:01:34.361Z,166.07
2022-09-28T18:04:03.450Z,173.32
2022-09-28T18:06:30.196Z,162.43
2022-09-28T18:08:56.771Z,182.13
2022-09-28T18:11:23.587Z,177.75
2022-09-28T18:13:50.151Z,177.73
2022-09-28T18:16:17.569Z,175.02
2022-09-28T18:18:44.117Z,152.75
2022-09-28T18:21:10.736Z,144.73
2022-09-28T18:23:38.359Z,137.60
2022-09-28T18:26:11.020Z,112.18
2022-09-28T18:28:37.558Z,121.70
2022-09-28T18:31:08.949Z,102.07
2022-09-28T18:33:36.604Z,91.53
2022-09-28T18:36:05.354Z,80.78
2022-09-28T18:38:34.607Z,54.70
2022-09-28T18:41:14.443Z,45.47
2022-09-28T18:43:42.439Z,45.80
2022-09-28T18:46:10.571Z,46.40
2022-09-28T18:48:38.252Z,44.55
2022-09-28T18:51:08.753Z,44.50
2022-09-28T18:53:35.411Z,44.15
2022-09-28T18:56:07.941Z,43.42
2022-09-28T18:58:36.468Z,45.47
2022-09-28T19:04:03.922Z,45.15
2022-09-28T19:06:31.807Z,50.25
2022-09-28T19:08:58.680Z,52.25
2022-09-28T19:11:25.847Z,52.35
2022-09-28T19:13:54.517Z,52.65
2022-09-28T19:16:26.218Z,55.58
2022-09-28T19:18:53.649Z,53.90
2022-09-28T19:21:21.047Z,63.28
2022-09-28T19:23:49.859Z,68.35
2022-09-28T19:26:22.292Z,72.85
2022-09-28T19:28:49.220Z,103.40
2022-09-28T19:31:16.696Z,115.05
2022-09-28T19:33:46.408Z,116.28
2022-09-28T19:36:18.866Z,112.57
2022-09-28T19:38:46.254Z,126.03
2022-09-28T19:41:39.142Z,123.80
2022-09-28T19:44:19.792Z,150.82
2022-09-28T19:46:46.472Z,165.98
2022-09-28T19:49:19.388Z,184.43
2022-09-28T19:52:11.696Z,232.70
2022-09-28T19:54:38.172Z,259.30
2022-09-28T19:57:08.770Z,297.73
2022-09-28T19:59:37.675Z,301.10
2022-09-28T20:02:07.432Z,334.77
2022-09-28T20:04:33.993Z,335.17
2022-09-28T20:07:00.758Z,349.45
2022-09-28T20:09:27.286Z,363.13
2022-09-28T20:11:53.846Z,351.63
2022-09-28T20:14:22.445Z,359.23
2022-09-28T20:16:51.127Z,367.02
2022-09-28T20:19:19.476Z,353.98
2022-09-28T20:21:48.072Z,373.70
2022-09-28T20:24:16.207Z,333.67
2022-09-28T20:26:43.382Z,334.85
2022-09-28T20:29:10.637Z,323.05
2022-09-28T20:31:37.938Z,314.25
2022-09-28T20:34:05.607Z,300.20
2022-09-28T20:36:32.603Z,294.02
2022-09-28T20:39:02.952Z,271.15
2022-09-28T20:41:36.619Z,281.65
2022-09-28T20:44:06.369Z,275.23
2022-09-28T20:46:34.798Z,271.92
2022-09-28T20:49:01.656Z,248.38
2022-09-28T20:51:28.238Z,268.95
2022-09-28T20:53:56.373Z,266.25
2022-09-28T20:56:23.831Z,243.43
2022-09-28T20:58:51.128Z,243.27
2022-09-28T21:01:26.429Z,230.45
2022-09-28T21:03:55.143Z,218.65
2022-09-28T21:06:23.910Z,205.60
2022-09-28T21:08:50.644Z,211.50
2022-09-28T21:11:19.440Z,189.43
2022-09-28T21:13:46.234Z,196.68
2022-09-28T21:16:15.575Z,198.55
2022-09-28T21:18:42.469Z,198.50
2022-09-28T21:21:14.403Z,197.82
2022-09-28T21:23:41.005Z,202.80
2022-09-28T21:26:09.934Z,200.48
2022-09-28T21:28:37.475Z,187.95
2022-09-28T21:31:10.321Z,191.30
2022-09-28T21:33:37.239Z,179.70
2022-09-28T21:36:06.314Z,167.13
2022-09-28T21:38:33.264Z,156.13
2022-09-28T21:41:00.518Z,155.10
2022-09-28T21:43:28.500Z,144.05
2022-09-28T21:45:56.468Z,132.32
2022-09-28T21:48:24.604Z,134.75
2022-09-28T21:51:13.274Z,128.82
2022-09-28T21:53:39.786Z,120.53
2022-09-28T21:56:09.474Z,122.45
2022-09-28T21:58:37.025Z,124.05
2022-09-28T22:01:06.995Z,122.10
2022-09-28T22:03:35.559Z,119.57
2022-09-28T22:06:06.071Z,120.53
2022-09-28T22:08:33.651Z,120.38
2022-09-28T22:11:17.931Z,119.07
2022-09-28T22:13:50.382Z,115.85
2022-09-28T22:16:20.399Z,113.80
2022-09-28T22:18:47.831Z,126.03
2022-09-28T22:21:17.844Z,121.50
2022-09-28T22:23:45.017Z,124.93
2022-09-28T22:26:18.880Z,125.20
2022-09-28T22:28:47.852Z,120.78
2022-09-28T22:31:15.399Z,120.93
2022-09-28T22:33:41.982Z,125.60
2022-09-28T22:36:08.507Z,125.63
2022-09-28T22:38:35.371Z,127.93
2022-09-28T22:41:05.149Z,128.70
2022-09-28T22:43:33.182Z,123.68
2022-09-28T22:46:07.697Z,130.75
2022-09-28T22:51:02.571Z,98.95
2022-09-28T22:53:29.894Z,115.93
2022-09-28T22:56:06.072Z,118.00
2022-09-28T22:58:34.184Z,122.57
2022-09-28T23:01:11.146Z,120.18
2022-09-28T23:03:42.216Z,118.60
2022-09-28T23:06:10.220Z,118.70
2022-09-28T23:08:36.877Z,119.30
2022-09-28T23:11:03.838Z,121.97
2022-09-28T23:13:31.130Z,118.97
2022-09-28T23:16:03.355Z,111.07
2022-09-28T23:18:32.630Z,119.57
2022-09-28T23:21:01.920Z,114.70
2022-09-28T23:23:29.085Z,109.20
2022-09-28T23:25:56.142Z,107.22
2022-09-28T23:28:24.782Z,112.20
2022-09-28T23:30:52.077Z,113.10
2022-09-28T23:33:20.358Z,114.75
2022-09-28T23:35:47.248Z,111.78
2022-09-28T23:38:17.987Z,109.45
2022-09-28T23:40:46.470Z,111.05
2022-09-28T23:43:13.559Z,107.30
2022-09-28T23:45:42.245Z,105.63
2022-09-28T23:48:09.226Z,104.30
2022-09-28T23:50:35.749Z,104.80
2022-09-28T23:53:02.234Z,101.70
2022-09-28T23:55:29.135Z,106.15
2022-09-28T23:57:56.689Z,105.78
